sensor_id;sensor_type;location;lat;lon;timestamp;P1;durP1;ratioP1;P2;durP2;ratioP2
28007;SDS011;15333;50.010;20.020;2023-05-07T00:02:57;43.83;;;27.85;;
28007;SDS011;15333;50.010;20.020;2023-05-07T00:05:58;41.20;;;27.95;;
28007;SDS011;15333;50.010;20.020;2023-05-07T00:08:59;47.35;;;28.73;;
28007;SDS011;15333;50.010;20.020;2023-05-07T00:12:01;47.13;;;29.08;;
28007;SDS011;15333;50.010;20.020;2023-05-07T00:15:02;45.60;;;29.83;;
28007;SDS011;15333;50.010;20.020;2023-05-07T00:18:04;46.95;;;30.05;;
28007;SDS011;15333;50.010;20.020;2023-05-07T00:21:05;57.63;;;31.77;;
28007;SDS011;15333;50.010;20.020;2023-05-07T00:24:05;53.67;;;29.88;;
28007;SDS011;15333;50.010;20.020;2023-05-07T00:27:06;45.67;;;29.90;;
28007;SDS011;15333;50.010;20.020;2023-05-07T00:30:07;50.67;;;28.65;;
28007;SDS011;15333;50.010;20.020;2023-05-07T00:33:09;51.92;;;30.77;;
28007;SDS011;15333;50.010;20.020;2023-05-07T00:36:09;50.45;;;30.90;;
28007;SDS011;15333;50.010;20.020;2023-05-07T00:39:10;49.88;;;28.33;;
28007;SDS011;15333;50.010;20.020;2023-05-07T00:42:12;51.15;;;28.40;;
28007;SDS011;15333;50.010;20.020;2023-05-07T00:45:13;53.15;;;28.67;;
28007;SDS011;15333;50.010;20.020;2023-05-07T00:48:15;53.10;;;29.70;;
28007;SDS011;15333;50.010;20.020;2023-05-07T00:51:17;62.25;;;32.55;;
28007;SDS011;15333;50.010;20.020;2023-05-07T00:54:18;55.30;;;31.83;;
28007;SDS011;15333;50.010;20.020;2023-05-07T00:57:20;58.60;;;31.92;;
28007;SDS011;15333;50.010;20.020;2023-05-07T01:00:21;55.42;;;30.77;;
28007;SDS011;15333;50.010;20.020;2023-05-07T01:03:22;52.90;;;30.65;;
28007;SDS011;15333;50.010;20.020;2023-05-07T01:06:24;53.63;;;31.38;;
28007;SDS011;15333;50.010;20.020;2023-05-07T01:09:28;49.95;;;31.15;;
28007;SDS011;15333;50.010;20.020;2023-05-07T01:12:29;55.42;;;31.33;;
28007;SDS011;15333;50.010;20.020;2023-05-07T01:15:31;52.28;;;30.70;;
28007;SDS011;15333;50.010;20.020;2023-05-07T01:18:32;52.05;;;31.27;;
28007;SDS011;15333;50.010;20.020;2023-05-07T01:21:34;53.63;;;30.58;;
28007;SDS011;15333;50.010;20.020;2023-05-07T01:24:38;53.25;;;29.92;;
28007;SDS011;15333;50.010;20.020;2023-05-07T01:27:42;47.90;;;28.45;;
28007;SDS011;15333;50.010;20.020;2023-05-07T01:30:43;45.85;;;30.05;;
28007;SDS011;15333;50.010;20.020;2023-05-07T01:33:51;48.33;;;28.00;;
28007;SDS011;15333;50.010;20.020;2023-05-07T01:36:53;48.70;;;29.75;;
28007;SDS011;15333;50.010;20.020;2023-05-07T01:39:56;54.63;;;30.80;;
28007;SDS011;15333;50.010;20.020;2023-05-07T01:42:57;52.92;;;30.52;;
28007;SDS011;15333;50.010;20.020;2023-05-07T01:45:59;54.17;;;31.58;;
28007;SDS011;15333;50.010;20.020;2023-05-07T01:49:01;60.75;;;32.80;;
28007;SDS011;15333;50.010;20.020;2023-05-07T01:52:03;52.97;;;31.77;;
28007;SDS011;15333;50.010;20.020;2023-05-07T01:55:05;60.10;;;32.60;;
28007;SDS011;15333;50.010;20.020;2023-05-07T01:58:06;61.00;;;33.13;;
28007;SDS011;15333;50.010;20.020;2023-05-07T02:01:07;68.05;;;33.42;;
28007;SDS011;15333;50.010;20.020;2023-05-07T02:04:08;67.63;;;35.78;;
28007;SDS011;15333;50.010;20.020;2023-05-07T02:07:10;66.35;;;36.70;;
28007;SDS011;15333;50.010;20.020;2023-05-07T02:10:11;73.20;;;37.88;;
28007;SDS011;15333;50.010;20.020;2023-05-07T02:13:12;67.45;;;36.13;;
28007;SDS011;15333;50.010;20.020;2023-05-07T02:16:13;68.25;;;37.38;;
28007;SDS011;15333;50.010;20.020;2023-05-07T02:19:14;69.18;;;37.53;;
28007;SDS011;15333;50.010;20.020;2023-05-07T02:22:15;69.72;;;36.83;;
28007;SDS011;15333;50.010;20.020;2023-05-07T02:25:16;69.43;;;36.45;;
28007;SDS011;15333;50.010;20.020;2023-05-07T02:28:17;67.18;;;34.75;;
28007;SDS011;15333;50.010;20.020;2023-05-07T02:31:38;65.45;;;34.53;;
28007;SDS011;15333;50.010;20.020;2023-05-07T02:34:39;57.97;;;31.02;;
28007;SDS011;15333;50.010;20.020;2023-05-07T02:37:40;60.90;;;32.13;;
28007;SDS011;15333;50.010;20.020;2023-05-07T02:40:41;59.03;;;31.05;;
28007;SDS011;15333;50.010;20.020;2023-05-07T02:43:42;56.53;;;31.05;;
28007;SDS011;15333;50.010;20.020;2023-05-07T02:46:44;55.30;;;31.00;;
28007;SDS011;15333;50.010;20.020;2023-05-07T02:49:47;52.45;;;29.90;;
28007;SDS011;15333;50.010;20.020;2023-05-07T02:52:48;51.33;;;28.30;;
28007;SDS011;15333;50.010;20.020;2023-05-07T02:55:49;47.75;;;27.58;;
28007;SDS011;15333;50.010;20.020;2023-05-07T02:58:50;49.75;;;28.83;;
28007;SDS011;15333;50.010;20.020;2023-05-07T03:01:52;51.40;;;27.50;;
28007;SDS011;15333;50.010;20.020;2023-05-07T03:04:53;47.60;;;27.75;;
28007;SDS011;15333;50.010;20.020;2023-05-07T03:07:54;43.88;;;26.63;;
28007;SDS011;15333;50.010;20.020;2023-05-07T03:10:55;45.15;;;26.27;;
28007;SDS011;15333;50.010;20.020;2023-05-07T03:13:56;42.70;;;25.77;;
28007;SDS011;15333;50.010;20.020;2023-05-07T03:16:57;38.78;;;23.88;;
28007;SDS011;15333;50.010;20.020;2023-05-07T03:19:58;40.42;;;23.40;;
28007;SDS011;15333;50.010;20.020;2023-05-07T03:22:59;37.70;;;23.08;;
28007;SDS011;15333;50.010;20.020;2023-05-07T03:26:00;33.35;;;22.48;;
28007;SDS011;15333;50.010;20.020;2023-05-07T03:29:01;31.05;;;19.70;;
28007;SDS011;15333;50.010;20.020;2023-05-07T03:32:02;28.60;;;18.83;;
28007;SDS011;15333;50.010;20.020;2023-05-07T03:35:03;34.28;;;18.92;;
28007;SDS011;15333;50.010;20.020;2023-05-07T03:51:35;17.48;;;11.15;;
28007;SDS011;15333;50.010;20.020;2023-05-07T03:54:37;17.17;;;10.27;;
28007;SDS011;15333;50.010;20.020;2023-05-07T03:57:38;11.52;;;9.23;;
28007;SDS011;15333;50.010;20.020;2023-05-07T04:00:40;12.52;;;8.40;;
28007;SDS011;15333;50.010;20.020;2023-05-07T04:03:52;14.68;;;9.10;;
28007;SDS011;15333;50.010;20.020;2023-05-07T04:06:53;9.95;;;7.25;;
28007;SDS011;15333;50.010;20.020;2023-05-07T04:09:55;13.88;;;7.72;;
28007;SDS011;15333;50.010;20.020;2023-05-07T04:12:57;12.07;;;7.70;;
28007;SDS011;15333;50.010;20.020;2023-05-07T04:16:01;11.63;;;7.32;;
28007;SDS011;15333;50.010;20.020;2023-05-07T04:19:03;11.63;;;7.93;;
28007;SDS011;15333;50.010;20.020;2023-05-07T04:22:04;12.77;;;8.10;;
28007;SDS011;15333;50.010;20.020;2023-05-07T04:25:06;14.35;;;8.68;;
28007;SDS011;15333;50.010;20.020;2023-05-07T04:28:09;13.65;;;9.23;;
28007;SDS011;15333;50.010;20.020;2023-05-07T04:31:11;12.95;;;9.13;;
28007;SDS011;15333;50.010;20.020;2023-05-07T04:34:13;14.30;;;8.93;;
28007;SDS011;15333;50.010;20.020;2023-05-07T04:37:15;15.05;;;8.88;;
28007;SDS011;15333;50.010;20.020;2023-05-07T04:40:16;12.60;;;8.80;;
28007;SDS011;15333;50.010;20.020;2023-05-07T04:43:18;10.57;;;8.60;;
28007;SDS011;15333;50.010;20.020;2023-05-07T04:46:23;12.45;;;8.70;;
28007;SDS011;15333;50.010;20.020;2023-05-07T04:49:25;13.40;;;8.93;;
28007;SDS011;15333;50.010;20.020;2023-05-07T04:52:28;14.05;;;9.63;;
28007;SDS011;15333;50.010;20.020;2023-05-07T04:55:29;14.18;;;9.00;;
28007;SDS011;15333;50.010;20.020;2023-05-07T04:58:30;14.48;;;8.90;;
28007;SDS011;15333;50.010;20.020;2023-05-07T05:01:32;12.65;;;8.63;;
28007;SDS011;15333;50.010;20.020;2023-05-07T05:04:33;12.68;;;8.93;;
28007;SDS011;15333;50.010;20.020;2023-05-07T05:07:34;13.35;;;8.95;;
28007;SDS011;15333;50.010;20.020;2023-05-07T05:10:36;15.32;;;9.63;;
28007;SDS011;15333;50.010;20.020;2023-05-07T05:13:37;10.73;;;8.50;;
28007;SDS011;15333;50.010;20.020;2023-05-07T05:16:45;12.75;;;9.15;;
28007;SDS011;15333;50.010;20.020;2023-05-07T05:19:46;13.77;;;9.15;;
28007;SDS011;15333;50.010;20.020;2023-05-07T05:22:47;11.88;;;9.40;;
28007;SDS011;15333;50.010;20.020;2023-05-07T05:25:48;12.73;;;9.02;;
28007;SDS011;15333;50.010;20.020;2023-05-07T05:28:50;10.48;;;8.60;;
28007;SDS011;15333;50.010;20.020;2023-05-07T05:31:54;13.35;;;10.60;;
28007;SDS011;15333;50.010;20.020;2023-05-07T05:34:55;12.60;;;10.02;;
28007;SDS011;15333;50.010;20.020;2023-05-07T05:37:56;14.38;;;11.13;;
28007;SDS011;15333;50.010;20.020;2023-05-07T05:40:57;14.45;;;9.20;;
28007;SDS011;15333;50.010;20.020;2023-05-07T05:43:58;10.20;;;7.60;;
28007;SDS011;15333;50.010;20.020;2023-05-07T05:47:00;15.27;;;7.53;;
28007;SDS011;15333;50.010;20.020;2023-05-07T05:50:02;9.70;;;6.78;;
28007;SDS011;15333;50.010;20.020;2023-05-07T05:53:02;12.00;;;6.90;;
28007;SDS011;15333;50.010;20.020;2023-05-07T05:56:04;12.55;;;6.95;;
28007;SDS011;15333;50.010;20.020;2023-05-07T05:59:06;11.35;;;6.90;;
28007;SDS011;15333;50.010;20.020;2023-05-07T06:02:08;15.48;;;7.35;;
28007;SDS011;15333;50.010;20.020;2023-05-07T06:05:09;12.13;;;7.55;;
28007;SDS011;15333;50.010;20.020;2023-05-07T06:08:10;9.77;;;5.70;;
28007;SDS011;15333;50.010;20.020;2023-05-07T06:11:10;8.70;;;5.88;;
28007;SDS011;15333;50.010;20.020;2023-05-07T06:14:14;12.10;;;6.47;;
28007;SDS011;15333;50.010;20.020;2023-05-07T06:17:15;10.45;;;6.72;;
28007;SDS011;15333;50.010;20.020;2023-05-07T06:20:16;14.50;;;7.47;;
28007;SDS011;15333;50.010;20.020;2023-05-07T06:23:18;9.88;;;6.60;;
28007;SDS011;15333;50.010;20.020;2023-05-07T06:26:19;11.88;;;6.40;;
28007;SDS011;15333;50.010;20.020;2023-05-07T06:29:22;11.57;;;6.10;;
28007;SDS011;15333;50.010;20.020;2023-05-07T06:32:23;7.82;;;5.70;;
28007;SDS011;15333;50.010;20.020;2023-05-07T06:35:25;9.77;;;6.32;;
28007;SDS011;15333;50.010;20.020;2023-05-07T06:38:27;7.47;;;6.03;;
28007;SDS011;15333;50.010;20.020;2023-05-07T06:41:28;10.73;;;6.03;;
28007;SDS011;15333;50.010;20.020;2023-05-07T06:44:33;9.02;;;5.72;;
28007;SDS011;15333;50.010;20.020;2023-05-07T06:47:46;8.02;;;5.55;;
28007;SDS011;15333;50.010;20.020;2023-05-07T06:50:47;9.13;;;5.40;;
28007;SDS011;15333;50.010;20.020;2023-05-07T06:53:48;7.85;;;5.30;;
28007;SDS011;15333;50.010;20.020;2023-05-07T06:56:49;7.78;;;5.47;;
28007;SDS011;15333;50.010;20.020;2023-05-07T06:59:51;10.63;;;5.88;;
28007;SDS011;15333;50.010;20.020;2023-05-07T07:02:53;7.63;;;5.07;;
28007;SDS011;15333;50.010;20.020;2023-05-07T07:05:58;8.63;;;5.32;;
28007;SDS011;15333;50.010;20.020;2023-05-07T07:08:59;8.27;;;5.28;;
28007;SDS011;15333;50.010;20.020;2023-05-07T07:12:01;7.05;;;5.07;;
28007;SDS011;15333;50.010;20.020;2023-05-07T07:15:03;7.57;;;5.30;;
28007;SDS011;15333;50.010;20.020;2023-05-07T07:18:04;6.65;;;4.85;;
28007;SDS011;15333;50.010;20.020;2023-05-07T07:21:05;7.75;;;4.85;;
28007;SDS011;15333;50.010;20.020;2023-05-07T07:24:06;6.95;;;4.43;;
28007;SDS011;15333;50.010;20.020;2023-05-07T07:27:07;7.93;;;4.00;;
28007;SDS011;15333;50.010;20.020;2023-05-07T07:30:09;6.05;;;4.32;;
28007;SDS011;15333;50.010;20.020;2023-05-07T07:33:12;6.57;;;3.97;;
28007;SDS011;15333;50.010;20.020;2023-05-07T07:36:14;7.70;;;4.38;;
28007;SDS011;15333;50.010;20.020;2023-05-07T07:39:15;6.75;;;3.85;;
28007;SDS011;15333;50.010;20.020;2023-05-07T07:42:17;11.18;;;4.63;;
28007;SDS011;15333;50.010;20.020;2023-05-07T07:45:19;7.03;;;4.45;;
28007;SDS011;15333;50.010;20.020;2023-05-07T07:48:22;6.68;;;5.18;;
28007;SDS011;15333;50.010;20.020;2023-05-07T07:51:24;7.68;;;5.78;;
28007;SDS011;15333;50.010;20.020;2023-05-07T07:54:25;9.68;;;5.53;;
28007;SDS011;15333;50.010;20.020;2023-05-07T07:57:26;9.38;;;5.55;;
28007;SDS011;15333;50.010;20.020;2023-05-07T08:00:27;7.05;;;5.00;;
28007;SDS011;15333;50.010;20.020;2023-05-07T08:03:31;6.75;;;5.00;;
28007;SDS011;15333;50.010;20.020;2023-05-07T08:06:33;6.20;;;4.45;;
28007;SDS011;15333;50.010;20.020;2023-05-07T08:09:34;7.80;;;4.95;;
28007;SDS011;15333;50.010;20.020;2023-05-07T08:12:37;7.13;;;5.30;;
28007;SDS011;15333;50.010;20.020;2023-05-07T08:15:38;7.65;;;4.82;;
28007;SDS011;15333;50.010;20.020;2023-05-07T08:18:39;9.40;;;4.88;;
28007;SDS011;15333;50.010;20.020;2023-05-07T08:21:41;7.40;;;4.70;;
28007;SDS011;15333;50.010;20.020;2023-05-07T08:24:43;6.13;;;5.53;;
28007;SDS011;15333;50.010;20.020;2023-05-07T08:27:45;7.93;;;5.10;;
28007;SDS011;15333;50.010;20.020;2023-05-07T08:30:47;8.93;;;5.28;;
28007;SDS011;15333;50.010;20.020;2023-05-07T08:33:48;8.80;;;4.88;;
28007;SDS011;15333;50.010;20.020;2023-05-07T08:36:49;8.07;;;5.07;;
28007;SDS011;15333;50.010;20.020;2023-05-07T08:39:53;9.50;;;5.80;;
28007;SDS011;15333;50.010;20.020;2023-05-07T08:42:56;6.05;;;5.15;;
28007;SDS011;15333;50.010;20.020;2023-05-07T08:45:59;5.78;;;5.05;;
28007;SDS011;15333;50.010;20.020;2023-05-07T08:49:05;8.45;;;5.13;;
28007;SDS011;15333;50.010;20.020;2023-05-07T08:52:06;6.53;;;4.90;;
28007;SDS011;15333;50.010;20.020;2023-05-07T08:55:09;6.85;;;4.80;;
28007;SDS011;15333;50.010;20.020;2023-05-07T08:58:11;8.05;;;4.78;;
28007;SDS011;15333;50.010;20.020;2023-05-07T09:01:14;7.70;;;5.20;;
28007;SDS011;15333;50.010;20.020;2023-05-07T09:04:18;7.57;;;5.35;;
28007;SDS011;15333;50.010;20.020;2023-05-07T09:07:20;9.02;;;6.68;;
28007;SDS011;15333;50.010;20.020;2023-05-07T09:10:22;8.50;;;6.30;;
28007;SDS011;15333;50.010;20.020;2023-05-07T09:13:23;7.97;;;5.85;;
28007;SDS011;15333;50.010;20.020;2023-05-07T09:16:25;9.63;;;5.97;;
28007;SDS011;15333;50.010;20.020;2023-05-07T09:19:26;10.88;;;5.50;;
28007;SDS011;15333;50.010;20.020;2023-05-07T09:22:31;9.48;;;6.32;;
28007;SDS011;15333;50.010;20.020;2023-05-07T09:25:37;6.97;;;5.60;;
28007;SDS011;15333;50.010;20.020;2023-05-07T09:28:45;9.15;;;6.50;;
28007;SDS011;15333;50.010;20.020;2023-05-07T09:31:48;7.85;;;5.53;;
28007;SDS011;15333;50.010;20.020;2023-05-07T09:34:50;9.13;;;6.03;;
28007;SDS011;15333;50.010;20.020;2023-05-07T09:37:58;7.60;;;5.45;;
28007;SDS011;15333;50.010;20.020;2023-05-07T09:41:08;8.77;;;5.35;;
28007;SDS011;15333;50.010;20.020;2023-05-07T09:44:41;7.20;;;5.40;;
28007;SDS011;15333;50.010;20.020;2023-05-07T09:47:47;7.43;;;5.57;;
28007;SDS011;15333;50.010;20.020;2023-05-07T09:50:51;9.45;;;6.28;;
28007;SDS011;15333;50.010;20.020;2023-05-07T09:53:58;9.65;;;6.00;;
28007;SDS011;15333;50.010;20.020;2023-05-07T09:57:04;8.25;;;5.53;;
28007;SDS011;15333;50.010;20.020;2023-05-07T10:00:07;10.85;;;6.55;;
28007;SDS011;15333;50.010;20.020;2023-05-07T10:03:30;9.00;;;6.65;;
28007;SDS011;15333;50.010;20.020;2023-05-07T10:06:38;9.70;;;6.40;;
28007;SDS011;15333;50.010;20.020;2023-05-07T10:09:40;8.00;;;6.18;;
28007;SDS011;15333;50.010;20.020;2023-05-07T10:12:49;11.90;;;6.25;;
28007;SDS011;15333;50.010;20.020;2023-05-07T10:15:59;8.80;;;5.88;;
28007;SDS011;15333;50.010;20.020;2023-05-07T10:19:05;11.70;;;6.93;;
28007;SDS011;15333;50.010;20.020;2023-05-07T10:22:08;12.20;;;6.93;;
28007;SDS011;15333;50.010;20.020;2023-05-07T10:25:20;8.48;;;6.70;;
28007;SDS011;15333;50.010;20.020;2023-05-07T10:28:25;10.07;;;7.55;;
28007;SDS011;15333;50.010;20.020;2023-05-07T10:34:40;12.68;;;6.13;;
28007;SDS011;15333;50.010;20.020;2023-05-07T10:37:45;9.40;;;6.50;;
28007;SDS011;15333;50.010;20.020;2023-05-07T10:40:47;11.10;;;7.00;;
28007;SDS011;15333;50.010;20.020;2023-05-07T10:43:48;8.45;;;7.30;;
28007;SDS011;15333;50.010;20.020;2023-05-07T10:47:03;9.57;;;7.05;;
28007;SDS011;15333;50.010;20.020;2023-05-07T10:59:30;11.95;;;7.80;;
28007;SDS011;15333;50.010;20.020;2023-05-07T11:06:14;9.77;;;7.22;;
28007;SDS011;15333;50.010;20.020;2023-05-07T11:09:23;12.13;;;8.40;;
28007;SDS011;15333;50.010;20.020;2023-05-07T11:15:43;12.32;;;8.45;;
28007;SDS011;15333;50.010;20.020;2023-05-07T11:19:11;12.48;;;8.65;;
28007;SDS011;15333;50.010;20.020;2023-05-07T11:25:42;10.60;;;7.28;;
28007;SDS011;15333;50.010;20.020;2023-05-07T11:28:52;11.52;;;7.13;;
28007;SDS011;15333;50.010;20.020;2023-05-07T11:31:54;8.63;;;5.88;;
28007;SDS011;15333;50.010;20.020;2023-05-07T11:34:59;11.18;;;7.25;;
28007;SDS011;15333;50.010;20.020;2023-05-07T11:38:00;12.05;;;8.40;;
28007;SDS011;15333;50.010;20.020;2023-05-07T11:41:05;13.32;;;9.23;;
28007;SDS011;15333;50.010;20.020;2023-05-07T11:44:06;10.70;;;7.80;;
28007;SDS011;15333;50.010;20.020;2023-05-07T11:47:07;10.23;;;7.60;;
28007;SDS011;15333;50.010;20.020;2023-05-07T11:50:08;10.10;;;7.35;;
28007;SDS011;15333;50.010;20.020;2023-05-07T11:53:11;10.85;;;5.55;;
28007;SDS011;15333;50.010;20.020;2023-05-07T11:56:13;7.50;;;5.90;;
28007;SDS011;15333;50.010;20.020;2023-05-07T11:59:18;9.73;;;7.25;;
28007;SDS011;15333;50.010;20.020;2023-05-07T12:02:19;10.77;;;8.32;;
28007;SDS011;15333;50.010;20.020;2023-05-07T12:05:20;8.52;;;7.47;;
28007;SDS011;15333;50.010;20.020;2023-05-07T12:08:21;12.52;;;8.25;;
28007;SDS011;15333;50.010;20.020;2023-05-07T12:11:23;8.60;;;6.65;;
28007;SDS011;15333;50.010;20.020;2023-05-07T12:14:27;6.03;;;4.57;;
28007;SDS011;15333;50.010;20.020;2023-05-07T12:17:29;7.30;;;5.03;;
28007;SDS011;15333;50.010;20.020;2023-05-07T12:20:30;5.80;;;4.53;;
28007;SDS011;15333;50.010;20.020;2023-05-07T12:23:31;5.72;;;4.63;;
28007;SDS011;15333;50.010;20.020;2023-05-07T12:26:36;6.47;;;5.20;;
28007;SDS011;15333;50.010;20.020;2023-05-07T12:29:38;5.68;;;4.22;;
28007;SDS011;15333;50.010;20.020;2023-05-07T12:32:40;5.28;;;3.97;;
28007;SDS011;15333;50.010;20.020;2023-05-07T12:35:42;5.35;;;4.03;;
28007;SDS011;15333;50.010;20.020;2023-05-07T12:38:45;6.25;;;5.25;;
28007;SDS011;15333;50.010;20.020;2023-05-07T12:41:55;8.52;;;5.80;;
28007;SDS011;15333;50.010;20.020;2023-05-07T12:44:58;6.85;;;5.20;;
28007;SDS011;15333;50.010;20.020;2023-05-07T12:48:01;6.95;;;4.82;;
28007;SDS011;15333;50.010;20.020;2023-05-07T12:51:03;6.38;;;3.97;;
28007;SDS011;15333;50.010;20.020;2023-05-07T12:54:06;7.18;;;5.53;;
28007;SDS011;15333;50.010;20.020;2023-05-07T12:57:08;11.65;;;6.38;;
28007;SDS011;15333;50.010;20.020;2023-05-07T13:00:10;7.80;;;5.18;;
28007;SDS011;15333;50.010;20.020;2023-05-07T13:03:11;7.88;;;5.05;;
28007;SDS011;15333;50.010;20.020;2023-05-07T13:06:12;6.65;;;5.10;;
28007;SDS011;15333;50.010;20.020;2023-05-07T13:09:13;7.28;;;5.22;;
28007;SDS011;15333;50.010;20.020;2023-05-07T13:12:14;7.32;;;4.65;;
28007;SDS011;15333;50.010;20.020;2023-05-07T13:15:15;6.88;;;4.93;;
28007;SDS011;15333;50.010;20.020;2023-05-07T13:18:16;7.72;;;5.80;;
28007;SDS011;15333;50.010;20.020;2023-05-07T13:21:17;6.95;;;5.32;;
28007;SDS011;15333;50.010;20.020;2023-05-07T13:24:18;7.63;;;5.95;;
28007;SDS011;15333;50.010;20.020;2023-05-07T13:27:20;7.38;;;5.18;;
28007;SDS011;15333;50.010;20.020;2023-05-07T13:30:21;6.00;;;4.72;;
28007;SDS011;15333;50.010;20.020;2023-05-07T13:33:22;7.53;;;6.30;;
28007;SDS011;15333;50.010;20.020;2023-05-07T13:36:23;9.05;;;6.57;;
28007;SDS011;15333;50.010;20.020;2023-05-07T13:39:23;8.63;;;5.68;;
28007;SDS011;15333;50.010;20.020;2023-05-07T13:42:25;8.43;;;5.88;;
28007;SDS011;15333;50.010;20.020;2023-05-07T13:45:25;6.53;;;5.40;;
28007;SDS011;15333;50.010;20.020;2023-05-07T13:48:27;5.50;;;3.83;;
28007;SDS011;15333;50.010;20.020;2023-05-07T13:51:31;7.55;;;5.80;;
28007;SDS011;15333;50.010;20.020;2023-05-07T13:54:32;8.50;;;6.47;;
28007;SDS011;15333;50.010;20.020;2023-05-07T13:57:32;8.18;;;5.43;;
28007;SDS011;15333;50.010;20.020;2023-05-07T14:00:33;7.82;;;5.03;;
28007;SDS011;15333;50.010;20.020;2023-05-07T14:03:34;9.63;;;7.07;;
28007;SDS011;15333;50.010;20.020;2023-05-07T14:06:38;9.63;;;6.53;;
28007;SDS011;15333;50.010;20.020;2023-05-07T14:09:39;9.02;;;7.15;;
28007;SDS011;15333;50.010;20.020;2023-05-07T14:12:40;9.15;;;6.65;;
28007;SDS011;15333;50.010;20.020;2023-05-07T14:15:41;13.05;;;7.53;;
28007;SDS011;15333;50.010;20.020;2023-05-07T14:18:46;10.93;;;7.90;;
28007;SDS011;15333;50.010;20.020;2023-05-07T14:21:47;12.75;;;8.70;;
28007;SDS011;15333;50.010;20.020;2023-05-07T14:24:49;11.73;;;8.18;;
28007;SDS011;15333;50.010;20.020;2023-05-07T14:27:50;9.48;;;6.63;;
28007;SDS011;15333;50.010;20.020;2023-05-07T14:30:51;11.18;;;7.15;;
28007;SDS011;15333;50.010;20.020;2023-05-07T14:33:53;9.82;;;6.78;;
28007;SDS011;15333;50.010;20.020;2023-05-07T14:36:54;9.65;;;6.93;;
28007;SDS011;15333;50.010;20.020;2023-05-07T14:39:55;10.43;;;7.07;;
28007;SDS011;15333;50.010;20.020;2023-05-07T14:42:57;9.15;;;6.97;;
28007;SDS011;15333;50.010;20.020;2023-05-07T14:45:58;9.88;;;7.18;;
28007;SDS011;15333;50.010;20.020;2023-05-07T14:48:59;11.05;;;7.32;;
28007;SDS011;15333;50.010;20.020;2023-05-07T14:52:00;11.30;;;6.95;;
28007;SDS011;15333;50.010;20.020;2023-05-07T14:55:01;10.13;;;7.10;;
28007;SDS011;15333;50.010;20.020;2023-05-07T14:58:02;9.13;;;7.22;;
28007;SDS011;15333;50.010;20.020;2023-05-07T15:01:03;9.73;;;7.13;;
28007;SDS011;15333;50.010;20.020;2023-05-07T15:04:04;10.10;;;7.88;;
28007;SDS011;15333;50.010;20.020;2023-05-07T15:07:05;10.57;;;7.60;;
28007;SDS011;15333;50.010;20.020;2023-05-07T15:10:06;10.45;;;7.78;;
28007;SDS011;15333;50.010;20.020;2023-05-07T15:13:08;9.65;;;7.20;;
28007;SDS011;15333;50.010;20.020;2023-05-07T15:16:10;10.40;;;7.72;;
28007;SDS011;15333;50.010;20.020;2023-05-07T15:19:11;10.82;;;7.25;;
28007;SDS011;15333;50.010;20.020;2023-05-07T15:22:11;9.32;;;6.80;;
28007;SDS011;15333;50.010;20.020;2023-05-07T15:25:12;9.60;;;7.85;;
28007;SDS011;15333;50.010;20.020;2023-05-07T15:28:13;14.05;;;8.75;;
28007;SDS011;15333;50.010;20.020;2023-05-07T15:31:15;10.55;;;7.40;;
28007;SDS011;15333;50.010;20.020;2023-05-07T15:34:17;10.15;;;7.88;;
28007;SDS011;15333;50.010;20.020;2023-05-07T15:37:18;11.90;;;8.00;;
28007;SDS011;15333;50.010;20.020;2023-05-07T15:40:19;10.38;;;7.75;;
28007;SDS011;15333;50.010;20.020;2023-05-07T15:43:20;12.77;;;9.15;;
28007;SDS011;15333;50.010;20.020;2023-05-07T15:46:22;12.32;;;8.20;;
28007;SDS011;15333;50.010;20.020;2023-05-07T15:49:25;12.00;;;8.77;;
28007;SDS011;15333;50.010;20.020;2023-05-07T15:52:26;11.93;;;9.48;;
28007;SDS011;15333;50.010;20.020;2023-05-07T15:55:28;11.85;;;8.65;;
28007;SDS011;15333;50.010;20.020;2023-05-07T15:58:29;12.10;;;9.23;;
28007;SDS011;15333;50.010;20.020;2023-05-07T16:01:31;10.88;;;8.45;;
28007;SDS011;15333;50.010;20.020;2023-05-07T16:04:32;12.40;;;8.23;;
28007;SDS011;15333;50.010;20.020;2023-05-07T16:07:33;13.57;;;7.97;;
28007;SDS011;15333;50.010;20.020;2023-05-07T16:10:34;12.38;;;7.28;;
28007;SDS011;15333;50.010;20.020;2023-05-07T16:13:35;10.77;;;7.93;;
28007;SDS011;15333;50.010;20.020;2023-05-07T16:16:36;12.23;;;8.20;;
28007;SDS011;15333;50.010;20.020;2023-05-07T16:19:39;15.75;;;8.95;;
28007;SDS011;15333;50.010;20.020;2023-05-07T16:22:40;11.70;;;9.23;;
28007;SDS011;15333;50.010;20.020;2023-05-07T16:25:41;15.60;;;10.55;;
28007;SDS011;15333;50.010;20.020;2023-05-07T16:28:42;16.48;;;9.43;;
28007;SDS011;15333;50.010;20.020;2023-05-07T16:31:43;13.25;;;9.35;;
28007;SDS011;15333;50.010;20.020;2023-05-07T16:34:43;15.35;;;9.65;;
28007;SDS011;15333;50.010;20.020;2023-05-07T16:37:45;19.00;;;11.48;;
28007;SDS011;15333;50.010;20.020;2023-05-07T16:40:45;12.95;;;9.18;;
28007;SDS011;15333;50.010;20.020;2023-05-07T16:43:47;16.60;;;10.40;;
28007;SDS011;15333;50.010;20.020;2023-05-07T16:46:48;13.57;;;9.48;;
28007;SDS011;15333;50.010;20.020;2023-05-07T16:49:49;16.83;;;11.15;;
28007;SDS011;15333;50.010;20.020;2023-05-07T16:52:50;17.55;;;12.07;;
28007;SDS011;15333;50.010;20.020;2023-05-07T16:55:51;15.68;;;9.20;;
28007;SDS011;15333;50.010;20.020;2023-05-07T16:58:55;22.08;;;12.48;;
28007;SDS011;15333;50.010;20.020;2023-05-07T17:01:57;18.80;;;11.18;;
28007;SDS011;15333;50.010;20.020;2023-05-07T17:04:57;15.90;;;12.45;;
28007;SDS011;15333;50.010;20.020;2023-05-07T17:07:58;17.27;;;11.63;;
28007;SDS011;15333;50.010;20.020;2023-05-07T17:10:59;19.65;;;13.20;;
28007;SDS011;15333;50.010;20.020;2023-05-07T17:14:00;22.30;;;14.30;;
28007;SDS011;15333;50.010;20.020;2023-05-07T17:17:02;21.50;;;12.75;;
28007;SDS011;15333;50.010;20.020;2023-05-07T17:20:06;18.73;;;12.27;;
28007;SDS011;15333;50.010;20.020;2023-05-07T17:23:07;19.83;;;14.05;;
28007;SDS011;15333;50.010;20.020;2023-05-07T17:26:12;20.67;;;13.43;;
28007;SDS011;15333;50.010;20.020;2023-05-07T17:29:16;19.50;;;13.52;;
28007;SDS011;15333;50.010;20.020;2023-05-07T17:32:18;23.45;;;14.80;;
28007;SDS011;15333;50.010;20.020;2023-05-07T17:35:19;22.67;;;14.60;;
28007;SDS011;15333;50.010;20.020;2023-05-07T17:38:20;20.35;;;14.57;;
28007;SDS011;15333;50.010;20.020;2023-05-07T17:41:21;21.35;;;13.82;;
28007;SDS011;15333;50.010;20.020;2023-05-07T17:44:22;17.02;;;10.18;;
28007;SDS011;15333;50.010;20.020;2023-05-07T17:47:23;19.45;;;13.15;;
28007;SDS011;15333;50.010;20.020;2023-05-07T17:50:25;19.65;;;13.95;;
28007;SDS011;15333;50.010;20.020;2023-05-07T17:53:26;18.27;;;13.65;;
28007;SDS011;15333;50.010;20.020;2023-05-07T17:56:28;18.92;;;13.10;;
28007;SDS011;15333;50.010;20.020;2023-05-07T17:59:29;20.00;;;13.52;;
28007;SDS011;15333;50.010;20.020;2023-05-07T18:02:30;22.38;;;14.60;;
28007;SDS011;15333;50.010;20.020;2023-05-07T18:05:34;22.65;;;13.73;;
28007;SDS011;15333;50.010;20.020;2023-05-07T18:08:36;23.60;;;14.77;;
28007;SDS011;15333;50.010;20.020;2023-05-07T18:11:37;22.70;;;12.88;;
28007;SDS011;15333;50.010;20.020;2023-05-07T18:14:39;21.40;;;15.00;;
28007;SDS011;15333;50.010;20.020;2023-05-07T18:17:40;22.88;;;14.77;;
28007;SDS011;15333;50.010;20.020;2023-05-07T18:20:41;20.85;;;14.45;;
28007;SDS011;15333;50.010;20.020;2023-05-07T18:23:42;24.17;;;14.15;;
28007;SDS011;15333;50.010;20.020;2023-05-07T18:26:44;21.30;;;13.43;;